Detalii statie MIRACOM [00001CFF]

Toti senzorii

Date Temperatura solului [C]Precipitatii [mm]Voltaj baterie [mV]Leaf Wetness [Min]HC Air temperature [C]HC Relative humidity [%]Punctul de roua [C]
medieminmaxsumaultimatimpmedieminmaxmediemediemin
2019-06-13 17:00:00 29.6 29 30.2 0 7324 27.66 26.59 29.45 0 0 0
2019-06-13 18:00:00 28.4 28.2 28.8 0 7314 28.47 26.99 29.17 0 0 0
2019-06-13 19:00:00 27.9 27.5 28.3 0 7108 27.3 26.68 28.35 0 0 0
2019-06-13 20:00:00 27.1 26.7 27.5 0 6972 24.96 22.99 26.74 0 0 0
2019-06-13 21:00:00 26.2 25.7 26.7 0 6962 22.83 22.27 23.61 0 0 0
2019-06-13 22:00:00 25.4 25 25.8 0 6962 22.61 21.72 23.06 0 0 0
2019-06-13 23:00:00 24.7 24.4 25.1 0 6952 21.57 21.26 21.89 0 0 0
2019-06-14 00:00:00 24 23.7 24.3 0 6942 19.9 18.79 21.5 0 0 0
2019-06-14 01:00:00 23.4 23.1 23.7 0 6932 19 18.52 19.3 0 0 0
2019-06-14 02:00:00 22.9 22.7 23.2 0 6922 18.69 18.58 18.99 0 0 0
2019-06-14 03:00:00 22.4 22.3 22.7 0 6922 18.1 17.72 18.44 0 0 0
2019-06-14 04:00:00 22 21.8 22.2 0 6922 17.99 17.77 18.12 0 0 0
2019-06-14 05:00:00 21.6 21.4 21.8 0 6922 17.48 17.26 17.78 0 0 0
2019-06-14 06:00:00 21.3 21.2 21.4 0 7030 18.48 18.11 19.13 0 0 0
2019-06-14 07:00:00 21.2 21.1 21.3 0 7128 21.03 19.51 22.93 0 0 0
2019-06-14 08:00:00 21.3 21.2 21.6 0 7098 24.72 23.27 25.72 7.5 0
2019-06-14 09:00:00 21.7 21.5 22.2 0 7148 26.58 25.64 27.45 31.08 7.6 -1.1
2019-06-14 10:00:00 23.2 22.5 24.2 0 7332 28.37 27.81 28.86 35.29 11.2 9.4
2019-06-14 11:00:00 24.7 24.3 25.1 0 7332 29.5 28.72 30.35 35.62 12.4 9.4
2019-06-14 12:00:00 25.8 25.1 26.6 0 7332 30.05 29.57 30.69 29.99 10.2 5.6
2019-06-14 13:00:00 27.3 26.7 27.9 0 7332 30.82 29.97 31.41 25.14 7.7 0.5
2019-06-14 14:00:00 28.6 28.1 29 0 7332 31.2 30.69 31.73 21.52 0
2019-06-14 15:00:00 29.5 29 29.9 0 7332 31.46 30.91 31.88 0.88 0
2019-06-14 16:00:00 29.9 29.7 30.2 0 7332 31.27 31.02 31.51 2.51 -3.1 0
2019-06-14 17:00:00 29.8 29.7 30.1 0 7324 30.81 30.52 31.04 0 0 0
2019-06-14 18:00:00 29.5 29.2 29.7 0 7314 28.91 26.69 30.9 0 0 0
2019-06-14 19:00:00 28.4 27.7 29.1 0.2 7030 25.19 23.73 26.57 2.07 0
2019-06-14 20:00:00 27.1 26.5 27.7 0 6972 23.06 21.97 23.75 0 0 0
2019-06-14 21:00:00 25.9 25.5 26.3 0 6962 21.45 21.04 21.75 0 0 0
2019-06-14 22:00:00 25 24.7 25.6 0 6952 21.67 21.37 22.05 0 0 0
2019-06-14 23:00:00 24.2 23.8 24.6 0 6942 21.88 21.32 22.62 0 0 0
2019-06-15 00:00:00 23.7 23.5 23.9 0 6942 22.52 21.83 22.96 0 0 0
2019-06-15 01:00:00 23.3 23.2 23.4 0 6932 20.88 20.19 21.89 0 0 0
2019-06-15 02:00:00 23 22.8 23.3 0 6922 20.05 19.55 20.49 0 0 0
2019-06-15 03:00:00 22.8 22.7 23 0 6932 20.19 19.58 20.39 0 0 0
2019-06-15 04:00:00 22.5 22.3 22.9 0 6922 20.33 20.25 20.41 0 0 0
2019-06-15 05:00:00 22.2 22 22.5 0 6922 20.48 20.33 20.57 0 0 0
2019-06-15 06:00:00 21.9 21.7 22 0.2 6962 20.69 20.61 20.79 0 0 0
2019-06-15 07:00:00 21.7 21.6 21.8 0 7080 21.62 20.82 22.54 0 0 0
2019-06-15 08:00:00 21.9 21.8 22.1 0 7186 23.09 22.27 24.42 0 0 0
2019-06-15 09:00:00 22.6 22.3 23.2 0 7206 26.4 24.51 27.7 0 0 0
2019-06-15 10:00:00 24.1 23.4 24.8 0 7332 28.41 27.71 29 0 0 0
2019-06-15 11:00:00 24.9 24.7 25.4 0 7332 30.44 29.57 31.69 0 0 0
2019-06-15 12:00:00 26.2 25.3 27.1 0 7324 31.98 30.86 34.01 0 0 0
2019-06-15 13:00:00 28.1 27.3 28.9 0 7324 33.95 32.47 34.9 0 0 0
2019-06-15 14:00:00 29.7 29.1 30.4 0 7324 34.79 33.71 35.94 0 0 0
2019-06-15 15:00:00 30.5 30.3 30.8 0 7324 33.42 31.33 35.68 0 0 0
2019-06-15 16:00:00 30.7 30.6 30.9 0 7332 33.4 32.63 33.79 0 0 0